Amazonia, Missouri
Current Conditions -  °F | °C
As of 5:53 PM on Saturday 22 Nov 2014 (Local Time) from KSTJ Reporting Station
Clear Clear  
Wind Chill: 54°   Ceiling: Unl
Heat Index: 54°   Visibility: 10mi
Dew Point: 51°   Wind: 14mph
Humidity: 90%   Direction: 170°S
Pressure: 29.73"   Gusts: NA
Location:  39.89°N, 94.89°W
Report Text: KSTJ 222353Z AUTO 17012KT 10SM CLR 12/11 A2973 RMK AO2 SLP068 T01220106 10139 20106 58015
Loading
Personal Weather Stations






























Interactive Weather Map New forecast layout! Learn more

10-Day Weather Forecast

Advertisements
Track Severe Weather on mobile